createdAt,value
2018-08-21T07:07:37.994Z,25
2018-08-21T07:07:58.167Z,25
2018-08-21T07:08:18.326Z,25
2018-08-21T07:08:38.488Z,25
2018-08-21T07:08:58.699Z,25
2018-08-21T07:09:18.863Z,25
2018-08-21T07:09:39.017Z,25
2018-08-21T07:09:59.173Z,25
2018-08-21T07:10:19.363Z,25
2018-08-21T07:10:39.507Z,25
2018-08-21T07:10:59.679Z,25
2018-08-21T07:11:19.866Z,25
2018-08-21T07:11:40.109Z,25
2018-08-21T07:12:00.286Z,25
2018-08-21T07:12:20.491Z,25
2018-08-21T07:12:40.656Z,25
2018-08-21T07:13:00.822Z,25
2018-08-21T07:13:20.969Z,25
2018-08-21T07:13:41.136Z,25
2018-08-21T07:14:01.314Z,25
2018-08-21T07:14:21.586Z,25
2018-08-21T07:14:41.835Z,25
2018-08-21T07:15:02.010Z,20
2018-08-21T07:15:22.189Z,20
2018-08-21T07:15:42.364Z,20
2018-08-21T07:16:02.579Z,20
2018-08-21T07:16:22.728Z,20
2018-08-21T07:16:42.936Z,20
2018-08-21T07:17:03.055Z,20
2018-08-21T07:17:23.285Z,20
2018-08-21T07:17:43.605Z,20
2018-08-21T07:18:03.808Z,20
2018-08-21T07:18:24.091Z,20
2018-08-21T07:18:44.275Z,20
2018-08-21T07:47:38.096Z,20
2018-08-21T07:47:58.219Z,20
2018-08-21T07:48:18.382Z,20
2018-08-21T07:48:38.546Z,20
2018-08-21T07:48:58.745Z,20
2018-08-21T07:49:18.958Z,20
2018-08-21T07:49:39.131Z,20
2018-08-21T07:49:59.334Z,20
2018-08-21T07:50:19.509Z,20
2018-08-21T07:50:39.829Z,20
2018-08-21T07:51:00.099Z,20
2018-08-21T07:51:20.273Z,20
2018-08-21T07:51:40.522Z,20
2018-08-21T07:52:00.760Z,20
2018-08-21T07:52:20.976Z,20
2018-08-21T07:52:41.226Z,20
2018-08-21T07:53:01.447Z,20
2018-08-21T07:53:21.678Z,20
2018-08-21T07:53:42.151Z,20
2018-08-21T07:54:02.351Z,20
2018-08-21T07:54:22.557Z,20
2018-08-21T07:54:42.795Z,20
2018-08-21T07:55:03.040Z,20
2018-08-21T07:55:23.241Z,20
2018-08-21T07:55:43.548Z,20
2018-08-21T07:56:03.744Z,20
2018-08-21T07:56:24.133Z,20
2018-08-21T07:56:44.404Z,20
2018-08-21T07:57:04.801Z,20
2018-08-21T07:57:25.042Z,20
2018-08-21T07:57:45.251Z,20
2018-08-21T07:58:05.560Z,20
2018-08-21T07:58:27.107Z,20
2018-08-21T07:58:47.358Z,20
2018-08-21T07:59:07.595Z,20
2018-08-21T07:59:27.758Z,20
2018-08-21T07:59:47.932Z,20
2018-08-21T08:00:08.103Z,20
2018-08-21T08:00:28.313Z,20
2018-08-21T08:00:48.539Z,20
2018-08-21T08:01:08.762Z,20
2018-08-21T08:01:28.993Z,20
2018-08-21T08:01:49.187Z,20
2018-08-21T08:02:09.816Z,20
2018-08-21T08:02:30.008Z,20
2018-08-21T08:02:50.396Z,20
2018-08-21T08:13:10.041Z,20
2018-08-21T08:13:30.207Z,20
2018-08-21T08:13:51.165Z,20
2018-08-21T08:14:11.539Z,20
2018-08-21T08:14:31.755Z,20
2018-08-21T08:14:51.956Z,20
2018-08-21T08:15:12.192Z,20
2018-08-21T08:15:32.382Z,20
2018-08-21T08:15:52.569Z,20
2018-08-21T08:16:12.798Z,20
2018-08-21T08:16:33.061Z,25
2018-08-21T08:16:53.225Z,25
2018-08-21T08:17:13.364Z,25
2018-08-21T08:17:33.569Z,25
2018-08-21T08:17:53.777Z,25
2018-08-21T08:18:14.000Z,25
2018-08-21T08:18:34.192Z,25
2018-08-21T08:18:54.485Z,25
2018-08-21T08:19:14.714Z,25
2018-08-21T08:19:35.012Z,25
2018-08-21T08:19:55.350Z,25
2018-08-21T08:20:15.557Z,25
2018-08-21T08:20:35.702Z,25
2018-08-21T08:20:56.030Z,25
2018-08-21T08:21:16.250Z,25
2018-08-21T08:21:36.475Z,25
2018-08-21T08:21:56.749Z,25
2018-08-21T08:22:17.073Z,25
2018-08-21T08:22:37.268Z,25
2018-08-21T08:22:57.596Z,25
2018-08-21T08:23:17.934Z,25
2018-08-21T08:23:38.353Z,25
2018-08-21T08:23:58.541Z,25
2018-08-21T08:24:18.763Z,25
2018-08-21T08:24:38.914Z,25
2018-08-21T08:24:59.100Z,25
2018-08-21T08:25:19.263Z,25
2018-08-21T08:25:39.465Z,25
2018-08-21T08:25:59.665Z,25
2018-08-21T08:26:19.840Z,25
2018-08-21T08:26:40.021Z,25
2018-08-21T08:27:00.238Z,30
2018-08-21T08:27:20.532Z,30
2018-08-21T08:27:40.784Z,30
2018-08-21T08:28:01.010Z,30
2018-08-21T08:28:21.230Z,30
2018-08-21T08:28:41.381Z,30
2018-08-21T08:29:01.652Z,30
2018-08-21T08:29:21.920Z,30
2018-08-21T08:29:42.187Z,30
2018-08-21T08:30:02.392Z,30
2018-08-21T08:30:22.639Z,30
2018-08-21T08:30:42.823Z,30
2018-08-21T08:31:03.094Z,30
2018-08-21T08:31:23.399Z,30
2018-08-21T08:31:43.848Z,30
2018-08-21T08:32:04.090Z,30
2018-08-21T08:32:24.353Z,30
2018-08-21T08:32:44.478Z,30
2018-08-21T08:33:04.679Z,30
2018-08-21T08:33:24.850Z,30
2018-08-21T08:33:45.058Z,30
2018-08-21T08:34:05.416Z,30
2018-08-21T08:34:25.627Z,30
2018-08-21T08:34:45.839Z,30
2018-08-21T08:35:05.994Z,30
2018-08-21T08:35:26.279Z,30
2018-08-21T08:35:46.476Z,30
2018-08-21T08:36:06.631Z,35
2018-08-21T08:36:26.816Z,35
2018-08-21T08:36:47.084Z,35
2018-08-21T08:37:07.365Z,35
2018-08-21T08:37:27.578Z,35
2018-08-21T08:37:47.858Z,35
2018-08-21T08:38:08.030Z,35
2018-08-21T08:38:28.259Z,35
2018-08-21T08:38:48.415Z,35
2018-08-21T08:39:08.602Z,35
2018-08-21T08:39:28.800Z,35
2018-08-21T08:39:48.969Z,35
2018-08-21T08:40:09.220Z,40
2018-08-21T08:40:29.610Z,40
2018-08-21T08:40:50.044Z,40
2018-08-21T08:41:10.278Z,40
2018-08-21T08:41:30.496Z,40
2018-08-21T08:41:51.435Z,40
2018-08-21T08:42:11.571Z,40
2018-08-21T08:42:31.786Z,40
2018-08-21T08:42:52.055Z,40
2018-08-21T08:43:12.299Z,40
2018-08-21T08:43:33.425Z,40
2018-08-21T08:43:53.771Z,35
2018-08-21T08:44:14.045Z,35
2018-08-21T08:44:34.300Z,35
2018-08-21T08:44:54.546Z,35
2018-08-21T08:45:15.521Z,35
2018-08-21T08:45:37.524Z,30
2018-08-21T08:45:57.796Z,30
2018-08-21T08:46:18.011Z,30
2018-08-21T08:46:38.212Z,30
2018-08-21T08:46:58.418Z,30
2018-08-21T08:47:18.735Z,30
2018-08-21T08:47:39.165Z,30
2018-08-21T08:47:59.516Z,30
2018-08-21T08:48:19.741Z,30
2018-08-21T08:48:39.911Z,30
2018-08-21T08:49:00.118Z,30
2018-08-21T08:49:20.317Z,30
2018-08-21T08:49:40.509Z,30
2018-08-21T08:50:00.701Z,30
2018-08-21T08:50:20.907Z,25
2018-08-21T08:50:41.136Z,25
2018-08-21T08:51:01.448Z,25
2018-08-21T08:51:21.748Z,25
2018-08-21T08:51:42.001Z,25
2018-08-21T08:52:02.170Z,25
2018-08-21T08:52:22.352Z,30
2018-08-21T08:52:42.558Z,30
2018-08-21T08:53:02.857Z,30
2018-08-21T08:53:23.106Z,30
2018-08-21T08:53:43.346Z,30
2018-08-21T08:54:03.504Z,30
2018-08-21T08:54:23.716Z,30
2018-08-21T08:54:43.924Z,30
2018-08-21T08:55:04.129Z,30
2018-08-21T08:55:24.328Z,30
2018-08-21T08:55:44.512Z,30
2018-08-21T08:56:04.741Z,35
2018-08-21T08:56:24.924Z,35
2018-08-21T08:56:45.163Z,35
2018-08-21T08:57:05.309Z,35
2018-08-21T08:57:25.605Z,35
2018-08-21T08:57:45.856Z,35
2018-08-21T08:58:06.029Z,35
2018-08-21T08:58:26.269Z,35
2018-08-21T08:58:46.444Z,40
2018-08-21T08:59:06.754Z,40
2018-08-21T08:59:27.173Z,40
2018-08-21T08:59:47.331Z,40
2018-08-21T09:00:07.580Z,40
2018-08-21T09:00:27.800Z,40
2018-08-21T09:00:48.015Z,40
2018-08-21T09:01:08.265Z,40
2018-08-21T09:01:28.462Z,45
2018-08-21T09:01:48.691Z,45
2018-08-21T09:02:08.800Z,45
2018-08-21T09:02:29.004Z,45
2018-08-21T09:02:49.249Z,45
2018-08-21T09:03:09.562Z,45
2018-08-21T09:03:29.744Z,45
2018-08-21T09:03:50.026Z,45
2018-08-21T09:04:10.221Z,45
2018-08-21T09:04:30.394Z,50
2018-08-21T09:04:50.675Z,50
2018-08-21T09:05:10.943Z,50
2018-08-21T09:05:32.979Z,50
2018-08-21T09:05:53.264Z,50
2018-08-21T09:06:13.424Z,50
2018-08-21T09:06:33.671Z,50
2018-08-21T09:06:53.817Z,50
2018-08-21T09:07:14.314Z,50
2018-08-21T09:07:34.587Z,50
2018-08-21T09:07:54.757Z,55
2018-08-21T09:08:14.898Z,55
2018-08-21T09:08:35.063Z,55
2018-08-21T09:08:55.343Z,55
2018-08-21T09:09:15.569Z,55
2018-08-21T09:09:35.864Z,55
2018-08-21T09:09:56.083Z,55
2018-08-21T09:10:16.320Z,55
2018-08-21T09:10:36.535Z,55
2018-08-21T09:10:56.749Z,55
2018-08-21T09:11:16.982Z,55
2018-08-21T09:11:37.317Z,55
2018-08-21T09:11:57.496Z,55
2018-08-21T09:12:17.709Z,55
2018-08-21T09:12:37.869Z,55
2018-08-21T09:12:58.031Z,55
2018-08-21T09:13:18.427Z,55
2018-08-21T09:13:39.152Z,55
2018-08-21T09:13:59.440Z,55
2018-08-21T09:14:19.655Z,55
2018-08-21T09:14:39.878Z,55
2018-08-21T09:15:00.102Z,55
2018-08-21T09:15:20.335Z,55
2018-08-21T09:15:40.493Z,60
2018-08-21T09:16:00.742Z,60
2018-08-21T09:16:20.993Z,60
2018-08-21T09:16:41.332Z,60
2018-08-21T09:17:01.723Z,60
2018-08-21T09:17:21.972Z,60
2018-08-21T09:17:42.259Z,60
2018-08-21T09:18:02.565Z,60
2018-08-21T09:18:22.761Z,60
2018-08-21T09:18:44.442Z,60
2018-08-21T09:19:04.747Z,60
2018-08-21T09:19:24.989Z,60
2018-08-21T09:19:45.185Z,60
2018-08-21T09:20:05.350Z,60
2018-08-21T09:20:25.550Z,60
2018-08-21T09:20:46.131Z,60
2018-08-21T09:21:06.350Z,60
2018-08-21T09:21:26.626Z,60
2018-08-21T09:21:46.860Z,60
2018-08-21T09:22:07.096Z,60
2018-08-21T09:22:27.313Z,65
2018-08-21T09:22:47.564Z,65
2018-08-21T09:23:07.758Z,65
2018-08-21T09:23:28.000Z,65
2018-08-21T09:23:48.331Z,65
2018-08-21T09:24:08.595Z,65
2018-08-21T09:24:28.743Z,65
2018-08-21T09:24:48.990Z,65
2018-08-21T09:25:09.276Z,65
2018-08-21T09:25:29.605Z,65
2018-08-21T09:25:49.886Z,65
2018-08-21T09:26:10.131Z,65
2018-08-21T09:26:30.350Z,65
2018-08-21T09:26:50.551Z,65
2018-08-21T09:27:10.819Z,65
2018-08-21T09:27:30.994Z,65
2018-08-21T09:27:51.160Z,60
2018-08-21T09:28:11.428Z,60
2018-08-21T09:28:31.658Z,60
2018-08-21T09:28:51.896Z,60
2018-08-21T09:29:12.185Z,60
2018-08-21T09:29:32.458Z,60
2018-08-21T09:29:52.720Z,60
2018-08-21T09:30:12.963Z,60
2018-08-21T09:30:33.287Z,60
2018-08-21T09:30:53.621Z,60
2018-08-21T09:31:13.970Z,60
2018-08-21T09:31:34.221Z,65
2018-08-21T09:31:54.443Z,60
2018-08-21T09:32:14.645Z,60
2018-08-21T09:32:34.865Z,60
2018-08-21T09:32:55.121Z,60
2018-08-21T09:33:15.347Z,60
2018-08-21T09:33:35.616Z,65
2018-08-21T09:33:55.827Z,65
2018-08-21T09:34:15.975Z,60
2018-08-21T09:34:36.122Z,60
2018-08-21T09:34:56.338Z,60
2018-08-21T09:35:16.595Z,60
2018-08-21T09:35:36.849Z,60
2018-08-21T09:35:57.100Z,60
2018-08-21T09:36:17.260Z,60
2018-08-21T09:36:37.444Z,65
2018-08-21T09:36:57.634Z,65
2018-08-21T09:37:17.812Z,65
2018-08-21T09:37:38.012Z,65
2018-08-21T09:37:58.173Z,65
2018-08-21T09:38:18.598Z,65
2018-08-21T09:38:38.675Z,65
2018-08-21T09:38:58.872Z,70
2018-08-21T09:39:19.150Z,70
2018-08-21T09:39:39.362Z,70
2018-08-21T09:39:59.593Z,70
2018-08-21T09:40:19.756Z,70
2018-08-21T09:40:39.958Z,75
2018-08-21T09:41:00.145Z,75
2018-08-21T09:41:20.314Z,75
2018-08-21T09:41:40.527Z,80
2018-08-21T09:42:00.988Z,80
2018-08-21T09:42:21.188Z,80
2018-08-21T09:42:41.392Z,80
2018-08-21T09:43:01.590Z,85
2018-08-21T09:43:21.928Z,85
2018-08-21T09:43:42.074Z,90
2018-08-21T09:44:02.413Z,90
2018-08-21T09:44:22.593Z,90
2018-08-21T09:44:42.825Z,90
2018-08-21T09:45:03.031Z,90
2018-08-21T09:45:23.269Z,80
2018-08-21T09:45:43.490Z,80
2018-08-21T09:46:03.798Z,75
2018-08-21T09:46:23.976Z,75
2018-08-21T09:46:44.457Z,75
2018-08-21T09:47:04.693Z,75
2018-08-21T09:47:24.840Z,75
2018-08-21T09:47:45.018Z,70
2018-08-21T09:48:05.176Z,70
2018-08-21T09:48:25.344Z,70
2018-08-21T09:48:45.513Z,65
2018-08-21T09:49:05.767Z,65
2018-08-21T09:49:25.966Z,60
2018-08-21T09:49:46.295Z,60
2018-08-21T09:50:06.549Z,60
2018-08-21T09:50:26.789Z,60
2018-08-21T09:50:47.004Z,55
2018-08-21T09:51:07.234Z,55
2018-08-21T09:51:27.374Z,55
2018-08-21T09:51:47.639Z,55
2018-08-21T09:52:07.858Z,55
2018-08-21T09:52:28.123Z,55
2018-08-21T09:52:48.391Z,55
2018-08-21T09:53:08.555Z,55
2018-08-21T09:53:28.682Z,50
2018-08-21T09:53:48.895Z,50
2018-08-21T09:54:09.143Z,45
2018-08-21T09:54:29.352Z,45
2018-08-21T09:54:49.573Z,45
2018-08-21T09:55:09.841Z,45
2018-08-21T09:55:30.018Z,45
2018-08-21T09:55:50.242Z,45
2018-08-21T09:56:10.405Z,45
2018-08-21T09:56:30.588Z,45
2018-08-21T09:56:50.758Z,45
2018-08-21T09:57:10.980Z,45
2018-08-21T09:57:31.243Z,45
2018-08-21T09:57:51.544Z,45
2018-08-21T09:58:11.788Z,45
2018-08-21T09:58:32.030Z,45
2018-08-21T09:58:52.181Z,45
2018-08-21T09:59:12.380Z,40
2018-08-21T09:59:32.586Z,40
2018-08-21T09:59:53.536Z,40
2018-08-21T10:00:13.712Z,35
2018-08-21T10:00:33.879Z,35
2018-08-21T10:00:54.066Z,35
2018-08-21T10:01:14.483Z,35
2018-08-21T10:01:35.833Z,35
2018-08-21T10:01:56.225Z,40
2018-08-21T10:02:16.375Z,40
2018-08-21T10:02:36.547Z,40
2018-08-21T10:02:56.739Z,40
2018-08-21T10:03:16.898Z,40
2018-08-21T10:03:37.054Z,40
2018-08-21T10:03:57.205Z,40
2018-08-21T10:04:17.392Z,40
2018-08-21T10:04:37.543Z,40
2018-08-21T10:04:57.696Z,40
2018-08-21T10:05:17.909Z,35
2018-08-21T10:05:38.047Z,35
2018-08-21T10:05:58.176Z,35
2018-08-21T10:06:18.299Z,30
2018-08-21T10:06:38.510Z,30
2018-08-21T10:06:58.738Z,30
2018-08-21T10:07:18.897Z,30
2018-08-21T10:07:39.062Z,30
2018-08-21T10:07:59.249Z,30
2018-08-21T10:08:19.377Z,30
2018-08-21T10:08:39.527Z,30
2018-08-21T10:08:59.697Z,30
2018-08-21T10:09:19.879Z,30
2018-08-21T10:09:40.043Z,30
2018-08-21T10:10:00.258Z,30
2018-08-21T10:10:20.423Z,30
2018-08-21T10:10:40.606Z,30
2018-08-21T10:11:00.864Z,30
2018-08-21T10:11:20.984Z,30
2018-08-21T10:11:41.153Z,30
2018-08-21T10:12:01.372Z,30
2018-08-21T10:12:21.539Z,30
2018-08-21T10:12:41.792Z,30
2018-08-21T10:13:02.021Z,30
2018-08-21T10:13:22.225Z,30
2018-08-21T10:13:42.387Z,35
2018-08-21T10:14:02.605Z,35
2018-08-21T10:14:22.815Z,35
2018-08-21T10:14:43.005Z,35
2018-08-21T10:15:03.182Z,40
2018-08-21T10:15:23.411Z,40
2018-08-21T10:15:43.641Z,40
2018-08-21T10:16:04.040Z,40
2018-08-21T10:16:24.253Z,40
2018-08-21T10:16:44.476Z,45
2018-08-21T10:17:04.715Z,45
2018-08-21T10:30:25.002Z,30
2018-08-21T10:30:45.178Z,30
2018-08-21T10:31:05.406Z,35
2018-08-21T10:31:25.568Z,35
2018-08-21T10:31:45.721Z,35
2018-08-21T10:32:05.856Z,35
2018-08-21T10:32:26.016Z,40
2018-08-21T10:32:46.172Z,40
2018-08-21T10:33:06.335Z,40
2018-08-21T10:33:26.490Z,40
2018-08-21T10:33:46.628Z,40
2018-08-21T10:34:06.790Z,40
2018-08-21T10:34:26.943Z,40
2018-08-21T10:34:47.253Z,40
2018-08-21T10:35:07.935Z,40
2018-08-21T10:35:28.150Z,40
2018-08-21T10:35:48.432Z,40
2018-08-21T10:36:08.700Z,40
2018-08-21T10:36:29.072Z,40
2018-08-21T10:36:49.366Z,40
2018-08-21T10:37:09.586Z,40
2018-08-21T10:37:29.787Z,40
2018-08-21T10:37:50.242Z,40
2018-08-21T10:38:10.493Z,40
2018-08-21T10:38:30.813Z,40
2018-08-21T10:38:51.032Z,45
2018-08-21T10:39:11.251Z,45
2018-08-21T10:39:31.393Z,45
2018-08-21T10:39:51.726Z,45
2018-08-21T10:40:12.181Z,45
2018-08-21T10:40:32.736Z,45
2018-08-21T10:40:54.182Z,40
2018-08-21T10:41:14.683Z,40
2018-08-21T10:41:34.893Z,40
2018-08-21T10:41:55.421Z,40
2018-08-21T10:42:15.804Z,40
2018-08-21T10:42:36.274Z,40
2018-08-21T10:42:56.551Z,40
2018-08-21T10:43:16.750Z,40
2018-08-21T10:43:37.021Z,40
2018-08-21T10:43:57.265Z,40
2018-08-21T10:44:17.546Z,45
2018-08-21T10:44:37.824Z,45
2018-08-21T10:44:57.993Z,45
2018-08-21T10:45:18.234Z,45
2018-08-21T10:45:38.497Z,45
2018-08-21T10:45:58.695Z,45
2018-08-21T10:46:18.903Z,45
2018-08-21T10:46:39.146Z,45
2018-08-21T10:46:59.363Z,45
2018-08-21T10:47:19.560Z,45
2018-08-21T10:47:39.792Z,45
2018-08-21T10:48:00.058Z,45
2018-08-21T10:48:20.305Z,45
2018-08-21T10:48:40.555Z,45
2018-08-21T10:49:00.791Z,45
2018-08-21T10:49:21.051Z,50
2018-08-21T10:49:41.271Z,50
2018-08-21T10:50:01.521Z,50
2018-08-21T10:50:21.685Z,50
2018-08-21T10:50:41.960Z,50
2018-08-21T10:51:02.154Z,50
2018-08-21T10:51:22.434Z,50
2018-08-21T10:51:42.720Z,50
2018-08-21T10:52:03.115Z,50
2018-08-21T10:52:23.291Z,50
2018-08-21T10:52:43.496Z,50
2018-08-21T10:53:03.732Z,50
2018-08-21T10:53:23.934Z,50
2018-08-21T10:53:44.218Z,55
2018-08-21T10:54:04.412Z,55
2018-08-21T10:54:24.648Z,55
2018-08-21T10:54:44.825Z,55
2018-08-21T10:55:05.047Z,55
2018-08-21T10:55:25.238Z,55
2018-08-21T10:55:45.424Z,55
2018-08-21T10:56:05.828Z,60
2018-08-21T10:56:26.351Z,60
2018-08-21T10:56:46.733Z,60
2018-08-21T10:57:07.090Z,60
2018-08-21T10:57:27.279Z,60
2018-08-21T10:57:47.474Z,60
2018-08-21T10:58:07.726Z,60
2018-08-21T10:58:27.902Z,65
2018-08-21T10:58:48.104Z,60
2018-08-21T10:59:08.477Z,60
2018-08-21T10:59:28.747Z,60
2018-08-21T10:59:48.969Z,60
2018-08-21T11:00:09.185Z,60
2018-08-21T11:00:29.396Z,60
2018-08-21T11:00:49.570Z,60
2018-08-21T11:01:09.769Z,60
2018-08-21T11:01:30.058Z,60
2018-08-21T11:01:50.267Z,60
2018-08-21T11:02:10.566Z,60
2018-08-21T11:02:30.766Z,60
2018-08-21T11:02:50.969Z,60
2018-08-21T11:03:11.172Z,60
2018-08-21T11:03:31.389Z,60
2018-08-21T11:03:51.632Z,60
2018-08-21T11:04:11.809Z,60
2018-08-21T11:04:32.023Z,60
2018-08-21T11:04:52.326Z,60
2018-08-21T11:05:12.584Z,60
2018-08-21T11:05:32.818Z,65
2018-08-21T11:05:53.002Z,65
2018-08-21T11:06:13.281Z,65
2018-08-21T11:06:33.460Z,65
2018-08-21T11:06:53.744Z,65
2018-08-21T11:07:14.032Z,65
2018-08-21T11:07:34.241Z,65
2018-08-21T11:07:54.519Z,65
2018-08-21T11:08:14.690Z,65
2018-08-21T11:08:34.894Z,65
2018-08-21T11:08:55.117Z,65
2018-08-21T11:09:15.291Z,65
2018-08-21T11:09:35.500Z,65
2018-08-21T11:09:55.708Z,60
2018-08-21T11:10:15.926Z,60
2018-08-21T11:10:36.132Z,60
2018-08-21T11:10:56.320Z,60
2018-08-21T11:11:16.655Z,60
2018-08-21T11:11:36.989Z,55
2018-08-21T11:11:57.175Z,55
2018-08-21T11:12:17.484Z,55
2018-08-21T11:12:37.822Z,55
2018-08-21T11:12:57.945Z,55
2018-08-21T11:13:18.143Z,55
2018-08-21T11:13:38.354Z,50
2018-08-21T11:13:58.491Z,50
2018-08-21T11:14:18.705Z,50
2018-08-21T11:14:38.925Z,50
2018-08-21T11:14:59.177Z,50
2018-08-21T11:15:19.371Z,50
2018-08-21T11:15:39.509Z,50
2018-08-21T11:15:59.707Z,50
2018-08-21T11:16:19.896Z,50
2018-08-21T11:16:40.145Z,50
2018-08-21T11:17:00.334Z,55
2018-08-21T11:17:20.777Z,55
2018-08-21T11:17:41.002Z,55
2018-08-21T11:18:01.233Z,55
2018-08-21T11:18:21.431Z,55
2018-08-21T11:18:41.620Z,55
2018-08-21T11:19:01.817Z,55
2018-08-21T11:19:22.032Z,55
2018-08-21T11:19:42.245Z,55
2018-08-21T11:20:02.509Z,55
2018-08-21T11:20:22.686Z,60
2018-08-21T11:20:42.947Z,60
2018-08-21T11:21:03.167Z,60
2018-08-21T11:21:23.406Z,60
2018-08-21T11:21:43.705Z,60
2018-08-21T11:22:03.919Z,60
2018-08-21T11:22:24.124Z,60
2018-08-21T11:22:44.376Z,60
2018-08-21T11:23:04.630Z,60
2018-08-21T11:23:24.898Z,60
2018-08-21T11:23:45.064Z,60
2018-08-21T11:24:05.374Z,60
2018-08-21T11:24:25.696Z,60
2018-08-21T11:24:45.861Z,60
2018-08-21T11:25:06.123Z,60
2018-08-21T11:25:26.284Z,60
2018-08-21T11:25:46.460Z,60
2018-08-21T11:26:06.625Z,55
2018-08-21T11:26:26.836Z,55
2018-08-21T11:26:47.053Z,55
2018-08-21T11:27:07.240Z,60
2018-08-21T11:27:27.448Z,60
2018-08-21T11:27:47.639Z,60
2018-08-21T11:28:07.894Z,60
2018-08-21T11:28:28.147Z,60
2018-08-21T11:28:48.384Z,55
2018-08-21T11:29:08.622Z,55
2018-08-21T11:29:28.857Z,55
2018-08-21T11:29:49.211Z,55
2018-08-21T11:30:09.392Z,60
2018-08-21T11:30:29.549Z,60
2018-08-21T11:30:49.826Z,60
2018-08-21T11:31:10.148Z,60
2018-08-21T11:31:30.309Z,60
2018-08-21T11:31:50.558Z,60
2018-08-21T11:32:10.803Z,60
2018-08-21T11:32:31.076Z,60
2018-08-21T11:32:51.287Z,60
2018-08-21T11:33:11.511Z,60
2018-08-21T11:33:31.693Z,60
2018-08-21T11:33:51.872Z,60
2018-08-21T11:34:12.094Z,60
2018-08-21T11:34:32.252Z,60
2018-08-21T11:34:52.544Z,60
2018-08-21T11:35:12.775Z,60
2018-08-21T11:35:33.005Z,60
2018-08-21T11:35:53.239Z,60
2018-08-21T11:36:13.648Z,60
2018-08-21T11:36:33.872Z,60
2018-08-21T11:36:54.053Z,60
2018-08-21T11:37:14.199Z,60
2018-08-21T11:37:34.417Z,60
2018-08-21T11:37:54.628Z,65
2018-08-21T11:38:14.940Z,65
2018-08-21T11:38:35.133Z,65
2018-08-21T11:38:55.305Z,65
2018-08-21T11:39:15.487Z,65
2018-08-21T11:39:35.680Z,70
2018-08-21T11:39:55.817Z,70
2018-08-21T11:40:16.007Z,70
2018-08-21T11:40:36.234Z,70
2018-08-21T11:40:56.466Z,70
2018-08-21T11:41:16.656Z,70
2018-08-21T11:41:36.880Z,70
2018-08-21T11:41:57.117Z,70
2018-08-21T11:42:17.322Z,70
2018-08-21T11:42:37.531Z,75
2018-08-21T11:42:57.815Z,75
2018-08-21T11:43:18.051Z,75
2018-08-21T11:43:38.341Z,80
2018-08-21T11:43:58.632Z,80
2018-08-21T11:44:18.833Z,80
2018-08-21T11:44:39.058Z,80
2018-08-21T11:44:59.179Z,80
2018-08-21T11:45:19.404Z,80
2018-08-21T11:45:39.543Z,80
2018-08-21T11:45:59.806Z,80
2018-08-21T11:46:19.964Z,85
2018-08-21T11:46:40.190Z,80
2018-08-21T11:47:00.431Z,80
2018-08-21T11:47:20.709Z,80
2018-08-21T11:47:40.975Z,80
2018-08-21T11:48:01.229Z,80
2018-08-21T11:48:21.507Z,85
2018-08-21T11:48:41.829Z,80
2018-08-21T11:49:02.203Z,85
2018-08-21T11:49:23.488Z,75
2018-08-21T11:49:43.765Z,80
2018-08-21T11:50:05.006Z,80
2018-08-21T11:50:25.210Z,80
2018-08-21T11:50:45.491Z,80
2018-08-21T11:51:05.687Z,80
2018-08-21T11:51:25.896Z,75
2018-08-21T11:51:46.160Z,75
2018-08-21T11:52:06.506Z,75
2018-08-21T11:52:26.736Z,75
2018-08-21T11:52:46.998Z,80
2018-08-21T11:53:07.248Z,75
2018-08-21T11:53:27.495Z,75
2018-08-21T11:53:47.749Z,75
2018-08-21T11:54:08.032Z,75
2018-08-21T11:54:28.266Z,75
2018-08-21T11:54:48.500Z,80
2018-08-21T11:55:09.798Z,70
2018-08-21T11:55:30.276Z,70
2018-08-21T11:55:50.502Z,70
2018-08-21T11:56:10.684Z,65
2018-08-21T11:56:30.967Z,65
2018-08-21T11:56:53.054Z,65
2018-08-21T11:57:13.541Z,70
2018-08-21T11:57:33.699Z,65
2018-08-21T11:57:53.910Z,65
2018-08-21T11:58:14.047Z,65
2018-08-21T11:58:34.232Z,70
2018-08-21T11:58:54.428Z,65
2018-08-21T11:59:14.661Z,70
2018-08-21T11:59:34.853Z,65
2018-08-21T11:59:55.037Z,65
2018-08-21T12:00:15.246Z,65
2018-08-21T12:00:35.461Z,65
2018-08-21T12:00:55.709Z,65
2018-08-21T12:01:15.930Z,65
2018-08-21T12:01:36.140Z,65
2018-08-21T12:01:56.356Z,65
2018-08-21T12:02:16.504Z,65
2018-08-21T12:02:36.668Z,65
2018-08-21T12:02:56.836Z,65
2018-08-21T12:03:17.091Z,65
2018-08-21T12:03:37.384Z,60
2018-08-21T12:03:57.641Z,60
2018-08-21T12:04:17.878Z,60
2018-08-21T12:04:38.059Z,60
2018-08-21T12:04:58.300Z,60
2018-08-21T12:05:18.447Z,60
2018-08-21T12:05:38.780Z,55
2018-08-21T12:05:58.941Z,55
2018-08-21T12:06:19.199Z,55
2018-08-21T12:06:39.414Z,55
2018-08-21T12:06:59.631Z,55
2018-08-21T12:07:19.869Z,55
2018-08-21T12:07:40.116Z,55
2018-08-21T12:08:00.296Z,50
2018-08-21T12:08:20.500Z,50
2018-08-21T12:08:40.708Z,50
2018-08-21T12:09:01.024Z,50
2018-08-21T12:09:21.150Z,50
2018-08-21T12:09:41.427Z,50
2018-08-21T12:10:01.597Z,50
2018-08-21T12:10:21.847Z,50
2018-08-21T12:10:42.012Z,50
2018-08-21T12:11:02.206Z,50
2018-08-21T12:11:22.487Z,50
2018-08-21T12:11:42.670Z,50
2018-08-21T12:12:02.946Z,50
2018-08-21T12:12:23.171Z,50
2018-08-21T12:12:43.432Z,50
2018-08-21T12:13:03.667Z,50
2018-08-21T12:13:23.855Z,50
2018-08-21T12:13:44.111Z,50
2018-08-21T12:14:04.431Z,50
2018-08-21T12:14:24.636Z,50
2018-08-21T12:14:44.920Z,45
2018-08-21T12:15:05.126Z,45
2018-08-21T12:15:25.395Z,45
2018-08-21T12:15:45.598Z,45
2018-08-21T12:16:05.837Z,45
2018-08-21T12:16:26.036Z,45
2018-08-21T12:16:46.281Z,45
2018-08-21T12:17:06.572Z,45
2018-08-21T12:17:26.788Z,45
2018-08-21T12:17:46.952Z,50
2018-08-21T12:18:07.152Z,50
2018-08-21T12:18:27.343Z,50
2018-08-21T12:18:47.567Z,50
2018-08-21T12:19:07.791Z,55
2018-08-21T12:19:27.985Z,55
2018-08-21T12:19:48.266Z,55
2018-08-21T12:20:08.537Z,55
2018-08-21T12:20:28.801Z,55
2018-08-21T12:20:49.013Z,60
2018-08-21T12:21:09.253Z,60
2018-08-21T12:21:29.501Z,60
2018-08-21T12:21:49.698Z,60
2018-08-21T12:22:09.893Z,60
2018-08-21T12:22:30.107Z,60
2018-08-21T12:22:50.336Z,60
2018-08-21T12:23:10.524Z,60
2018-08-21T12:23:30.702Z,60
2018-08-21T12:23:50.953Z,60
2018-08-21T12:24:11.157Z,60
2018-08-21T12:24:31.401Z,60
2018-08-21T12:24:51.605Z,60
2018-08-21T12:25:11.827Z,65
2018-08-21T12:25:32.013Z,65
2018-08-21T12:25:52.193Z,65
2018-08-21T12:26:12.426Z,65
2018-08-21T12:26:32.607Z,60
2018-08-21T12:26:52.809Z,60
2018-08-21T12:27:13.028Z,60
2018-08-21T12:27:33.329Z,60
2018-08-21T12:27:53.584Z,60
2018-08-21T12:28:13.844Z,60
2018-08-21T12:28:34.110Z,60
2018-08-21T12:28:54.329Z,60
2018-08-21T12:29:14.541Z,60
2018-08-21T12:29:34.715Z,60
2018-08-21T12:29:54.994Z,60
2018-08-21T12:30:15.276Z,60
2018-08-21T12:30:35.454Z,60
2018-08-21T12:30:55.696Z,60
2018-08-21T12:31:15.909Z,60
2018-08-21T12:31:36.085Z,60
2018-08-21T12:31:56.307Z,60
2018-08-21T12:32:16.583Z,60
2018-08-21T12:32:36.816Z,60
2018-08-21T12:32:57.051Z,60
2018-08-21T12:33:17.216Z,60
2018-08-21T12:33:37.425Z,60
2018-08-21T12:33:57.697Z,60
2018-08-21T12:34:17.877Z,60
2018-08-21T12:34:38.330Z,55
2018-08-21T12:34:58.536Z,55
2018-08-21T12:35:18.712Z,55
2018-08-21T12:35:38.965Z,55
2018-08-21T12:35:59.161Z,60
2018-08-21T12:36:19.432Z,60
2018-08-21T12:36:39.620Z,60
2018-08-21T12:36:59.841Z,60
2018-08-21T12:37:20.029Z,60
2018-08-21T12:37:41.023Z,60
2018-08-21T12:38:02.021Z,60
2018-08-21T12:38:22.258Z,65
2018-08-21T12:38:42.470Z,65
2018-08-21T12:39:02.787Z,65
2018-08-21T12:39:23.056Z,65
2018-08-21T12:39:43.307Z,65
2018-08-21T12:40:03.518Z,65
2018-08-21T12:40:23.803Z,65
2018-08-21T12:40:44.024Z,65
2018-08-21T12:41:04.212Z,65
2018-08-21T12:41:24.470Z,65
2018-08-21T12:41:44.911Z,65
2018-08-21T12:42:05.090Z,65
2018-08-21T12:42:25.350Z,65
2018-08-21T12:42:45.551Z,65
2018-08-21T12:43:05.799Z,65
2018-08-21T12:43:25.982Z,65
2018-08-21T12:43:46.486Z,65
2018-08-21T12:44:06.765Z,65
2018-08-21T12:44:27.142Z,65
2018-08-21T12:44:47.439Z,65
2018-08-21T12:45:07.680Z,65
2018-08-21T12:45:28.844Z,65
2018-08-21T12:45:49.061Z,65
2018-08-21T12:46:09.537Z,65
2018-08-21T12:46:29.782Z,60
2018-08-21T12:46:50.982Z,60
2018-08-21T12:47:11.285Z,60
2018-08-21T12:47:31.481Z,60
2018-08-21T12:47:51.662Z,60